sensor_id;sensor_type;location;lat;lon;timestamp;temperature;humidity
53254;DHT22;39148;53.332;6.922;2022-08-11T00:02:31;23.70;77.00
53254;DHT22;39148;53.332;6.922;2022-08-11T00:05:02;23.70;76.60
53254;DHT22;39148;53.332;6.922;2022-08-11T00:07:29;23.70;76.50
53254;DHT22;39148;53.332;6.922;2022-08-11T00:09:55;23.70;76.40
53254;DHT22;39148;53.332;6.922;2022-08-11T00:12:21;23.60;76.50
53254;DHT22;39148;53.332;6.922;2022-08-11T00:14:55;23.60;76.40
53254;DHT22;39148;53.332;6.922;2022-08-11T00:17:26;23.60;76.70
53254;DHT22;39148;53.332;6.922;2022-08-11T00:20:04;23.60;76.70
53254;DHT22;39148;53.332;6.922;2022-08-11T00:22:31;23.60;75.50
53254;DHT22;39148;53.332;6.922;2022-08-11T00:24:57;23.60;76.70
53254;DHT22;39148;53.332;6.922;2022-08-11T00:27:32;23.60;76.70
53254;DHT22;39148;53.332;6.922;2022-08-11T00:29:58;23.50;76.80
53254;DHT22;39148;53.332;6.922;2022-08-11T00:32:25;23.60;76.60
53254;DHT22;39148;53.332;6.922;2022-08-11T00:34:52;23.60;77.20
53254;DHT22;39148;53.332;6.922;2022-08-11T00:37:20;23.50;76.80
53254;DHT22;39148;53.332;6.922;2022-08-11T00:39:49;23.50;76.70
53254;DHT22;39148;53.332;6.922;2022-08-11T00:50:36;23.50;75.80
53254;DHT22;39148;53.332;6.922;2022-08-11T01:01:41;23.30;77.00
53254;DHT22;39148;53.332;6.922;2022-08-11T01:12:41;23.20;76.80
53254;DHT22;39148;53.332;6.922;2022-08-11T01:21:16;23.20;76.00
53254;DHT22;39148;53.332;6.922;2022-08-11T01:35:27;23.10;77.20
53254;DHT22;39148;53.332;6.922;2022-08-11T01:44:24;23.00;76.20
53254;DHT22;39148;53.332;6.922;2022-08-11T01:47:11;23.10;76.20
53254;DHT22;39148;53.332;6.922;2022-08-11T01:50:26;23.00;76.30
53254;DHT22;39148;53.332;6.922;2022-08-11T02:00:44;22.90;77.30
53254;DHT22;39148;53.332;6.922;2022-08-11T02:06:13;22.90;77.40
53254;DHT22;39148;53.332;6.922;2022-08-11T02:09:24;22.90;76.20
53254;DHT22;39148;53.332;6.922;2022-08-11T02:11:54;22.90;76.30
53254;DHT22;39148;53.332;6.922;2022-08-11T02:20:19;22.90;77.50
53254;DHT22;39148;53.332;6.922;2022-08-11T02:26:15;22.80;77.60
53254;DHT22;39148;53.332;6.922;2022-08-11T02:29:03;22.80;76.40
53254;DHT22;39148;53.332;6.922;2022-08-11T02:51:40;22.60;76.90
53254;DHT22;39148;53.332;6.922;2022-08-11T02:54:26;22.70;76.80
53254;DHT22;39148;53.332;6.922;2022-08-11T02:57:21;22.70;76.60
53254;DHT22;39148;53.332;6.922;2022-08-11T03:00:07;22.70;76.80
53254;DHT22;39148;53.332;6.922;2022-08-11T03:12:57;22.40;77.60
53254;DHT22;39148;53.332;6.922;2022-08-11T03:19:35;22.60;76.90
53254;DHT22;39148;53.332;6.922;2022-08-11T03:22:33;22.40;77.90
53254;DHT22;39148;53.332;6.922;2022-08-11T03:25:24;22.50;76.80
53254;DHT22;39148;53.332;6.922;2022-08-11T03:31:07;22.50;77.00
53254;DHT22;39148;53.332;6.922;2022-08-11T03:33:47;22.60;76.90
53254;DHT22;39148;53.332;6.922;2022-08-11T03:41:50;22.40;77.70
53254;DHT22;39148;53.332;6.922;2022-08-11T03:52:50;22.40;77.10
53254;DHT22;39148;53.332;6.922;2022-08-11T03:58:24;22.40;76.80
53254;DHT22;39148;53.332;6.922;2022-08-11T04:23:27;22.30;77.30
53254;DHT22;39148;53.332;6.922;2022-08-11T04:32:00;22.30;77.20
53254;DHT22;39148;53.332;6.922;2022-08-11T04:34:35;22.00;77.10
53254;DHT22;39148;53.332;6.922;2022-08-11T05:10:46;21.90;78.20
53254;DHT22;39148;53.332;6.922;2022-08-11T05:12:56;21.90;77.40
53254;DHT22;39148;53.332;6.922;2022-08-11T05:15:50;22.10;78.60
53254;DHT22;39148;53.332;6.922;2022-08-11T05:18:45;22.00;79.10
53254;DHT22;39148;53.332;6.922;2022-08-11T05:21:32;22.10;78.80
53254;DHT22;39148;53.332;6.922;2022-08-11T05:27:08;21.90;77.60
53254;DHT22;39148;53.332;6.922;2022-08-11T05:30:05;21.90;78.70
53254;DHT22;39148;53.332;6.922;2022-08-11T05:33:09;22.00;78.60
53254;DHT22;39148;53.332;6.922;2022-08-11T05:38:33;22.00;77.60
53254;DHT22;39148;53.332;6.922;2022-08-11T05:41:24;21.80;78.70
53254;DHT22;39148;53.332;6.922;2022-08-11T05:44:10;22.00;78.80
53254;DHT22;39148;53.332;6.922;2022-08-11T05:47:01;21.90;78.80
53254;DHT22;39148;53.332;6.922;2022-08-11T05:49:49;21.90;78.70
53254;DHT22;39148;53.332;6.922;2022-08-11T05:52:35;21.80;78.80
53254;DHT22;39148;53.332;6.922;2022-08-11T05:55:20;21.80;78.70
53254;DHT22;39148;53.332;6.922;2022-08-11T05:58:06;21.90;78.80
53254;DHT22;39148;53.332;6.922;2022-08-11T06:00:44;21.70;78.70
53254;DHT22;39148;53.332;6.922;2022-08-11T06:03:19;21.90;79.10
53254;DHT22;39148;53.332;6.922;2022-08-11T06:05:47;21.80;78.90
53254;DHT22;39148;53.332;6.922;2022-08-11T06:08:13;21.80;78.80
53254;DHT22;39148;53.332;6.922;2022-08-11T06:10:42;21.80;78.70
53254;DHT22;39148;53.332;6.922;2022-08-11T06:13:09;21.80;78.90
53254;DHT22;39148;53.332;6.922;2022-08-11T06:15:50;21.90;78.90
53254;DHT22;39148;53.332;6.922;2022-08-11T06:18:18;21.90;79.10
53254;DHT22;39148;53.332;6.922;2022-08-11T06:20:48;21.80;78.90
53254;DHT22;39148;53.332;6.922;2022-08-11T06:23:15;21.80;79.20
53254;DHT22;39148;53.332;6.922;2022-08-11T06:25:49;21.80;78.90
53254;DHT22;39148;53.332;6.922;2022-08-11T06:28:16;21.90;79.00
53254;DHT22;39148;53.332;6.922;2022-08-11T06:30:47;21.80;78.80
53254;DHT22;39148;53.332;6.922;2022-08-11T06:33:29;21.80;78.90
53254;DHT22;39148;53.332;6.922;2022-08-11T06:36:21;21.90;79.80
53254;DHT22;39148;53.332;6.922;2022-08-11T06:41:26;21.80;78.10
53254;DHT22;39148;53.332;6.922;2022-08-11T06:46:41;21.90;78.20
53254;DHT22;39148;53.332;6.922;2022-08-11T06:49:12;21.80;79.00
53254;DHT22;39148;53.332;6.922;2022-08-11T06:52:06;21.90;79.30
53254;DHT22;39148;53.332;6.922;2022-08-11T06:54:38;21.90;79.30
53254;DHT22;39148;53.332;6.922;2022-08-11T06:57:06;20.20;78.50
53254;DHT22;39148;53.332;6.922;2022-08-11T06:59:52;22.00;79.20
53254;DHT22;39148;53.332;6.922;2022-08-11T07:02:44;21.90;79.20
53254;DHT22;39148;53.332;6.922;2022-08-11T07:14:23;21.90;78.40
53254;DHT22;39148;53.332;6.922;2022-08-11T07:17:22;22.00;79.80
53254;DHT22;39148;53.332;6.922;2022-08-11T07:20:00;22.00;79.50
53254;DHT22;39148;53.332;6.922;2022-08-11T07:22:55;22.00;79.50
53254;DHT22;39148;53.332;6.922;2022-08-11T07:25:41;22.00;78.00
53254;DHT22;39148;53.332;6.922;2022-08-11T07:28:28;22.00;79.10
53254;DHT22;39148;53.332;6.922;2022-08-11T07:31:32;22.00;79.10
53254;DHT22;39148;53.332;6.922;2022-08-11T07:36:56;22.10;77.90
53254;DHT22;39148;53.332;6.922;2022-08-11T07:39:35;22.50;79.50
53254;DHT22;39148;53.332;6.922;2022-08-11T07:42:11;22.20;79.70
53254;DHT22;39148;53.332;6.922;2022-08-11T07:44:40;22.20;79.20
53254;DHT22;39148;53.332;6.922;2022-08-11T07:47:26;22.30;79.10
53254;DHT22;39148;53.332;6.922;2022-08-11T07:50:11;22.20;79.00
53254;DHT22;39148;53.332;6.922;2022-08-11T07:52:57;22.20;79.00
53254;DHT22;39148;53.332;6.922;2022-08-11T07:55:25;22.30;79.00
53254;DHT22;39148;53.332;6.922;2022-08-11T07:57:52;22.20;78.90
53254;DHT22;39148;53.332;6.922;2022-08-11T08:00:53;22.30;78.90
53254;DHT22;39148;53.332;6.922;2022-08-11T08:03:38;22.30;78.90
53254;DHT22;39148;53.332;6.922;2022-08-11T08:06:23;22.40;79.10
53254;DHT22;39148;53.332;6.922;2022-08-11T08:09:09;22.40;78.80
53254;DHT22;39148;53.332;6.922;2022-08-11T08:11:55;22.30;78.70
53254;DHT22;39148;53.332;6.922;2022-08-11T08:14:40;22.00;78.50
53254;DHT22;39148;53.332;6.922;2022-08-11T08:17:24;22.40;78.60
53254;DHT22;39148;53.332;6.922;2022-08-11T08:20:12;22.50;78.20
53254;DHT22;39148;53.332;6.922;2022-08-11T08:22:39;22.40;78.60
53254;DHT22;39148;53.332;6.922;2022-08-11T08:25:06;22.40;78.40
53254;DHT22;39148;53.332;6.922;2022-08-11T08:27:34;22.50;78.20
53254;DHT22;39148;53.332;6.922;2022-08-11T08:30:01;22.30;78.20
53254;DHT22;39148;53.332;6.922;2022-08-11T08:32:46;22.50;78.20
53254;DHT22;39148;53.332;6.922;2022-08-11T08:35:12;22.60;78.20
53254;DHT22;39148;53.332;6.922;2022-08-11T08:37:39;22.60;78.20
53254;DHT22;39148;53.332;6.922;2022-08-11T08:40:06;22.60;78.00
53254;DHT22;39148;53.332;6.922;2022-08-11T08:42:38;22.70;77.90
53254;DHT22;39148;53.332;6.922;2022-08-11T08:45:09;22.60;78.20
53254;DHT22;39148;53.332;6.922;2022-08-11T08:47:37;22.70;77.90
53254;DHT22;39148;53.332;6.922;2022-08-11T08:50:06;22.70;78.10
53254;DHT22;39148;53.332;6.922;2022-08-11T08:52:38;22.80;77.80
53254;DHT22;39148;53.332;6.922;2022-08-11T08:55:06;20.60;77.10
53254;DHT22;39148;53.332;6.922;2022-08-11T08:57:35;22.80;78.20
53254;DHT22;39148;53.332;6.922;2022-08-11T09:00:04;22.90;78.40
53254;DHT22;39148;53.332;6.922;2022-08-11T09:02:30;22.90;78.10
53254;DHT22;39148;53.332;6.922;2022-08-11T09:04:57;22.90;78.40
53254;DHT22;39148;53.332;6.922;2022-08-11T09:07:24;22.90;78.40
53254;DHT22;39148;53.332;6.922;2022-08-11T09:09:56;23.00;78.30
53254;DHT22;39148;53.332;6.922;2022-08-11T09:12:26;23.00;78.50
53254;DHT22;39148;53.332;6.922;2022-08-11T09:14:52;23.00;78.40
53254;DHT22;39148;53.332;6.922;2022-08-11T09:17:27;23.10;78.60
53254;DHT22;39148;53.332;6.922;2022-08-11T09:19:57;23.10;78.30
53254;DHT22;39148;53.332;6.922;2022-08-11T09:22:33;23.10;78.30
53254;DHT22;39148;53.332;6.922;2022-08-11T09:25:19;23.10;77.20
53254;DHT22;39148;53.332;6.922;2022-08-11T09:28:06;23.20;78.20
53254;DHT22;39148;53.332;6.922;2022-08-11T09:30:35;23.10;78.20
53254;DHT22;39148;53.332;6.922;2022-08-11T09:33:03;23.30;78.20
53254;DHT22;39148;53.332;6.922;2022-08-11T09:35:32;23.40;78.20
53254;DHT22;39148;53.332;6.922;2022-08-11T09:37:59;23.30;78.10
53254;DHT22;39148;53.332;6.922;2022-08-11T09:40:47;23.40;78.20
53254;DHT22;39148;53.332;6.922;2022-08-11T09:43:16;23.40;78.20
53254;DHT22;39148;53.332;6.922;2022-08-11T09:46:02;23.40;78.10
53254;DHT22;39148;53.332;6.922;2022-08-11T09:48:41;23.60;78.10
53254;DHT22;39148;53.332;6.922;2022-08-11T09:51:09;23.50;77.00
53254;DHT22;39148;53.332;6.922;2022-08-11T09:53:37;23.60;78.00
53254;DHT22;39148;53.332;6.922;2022-08-11T09:56:12;23.60;78.00
53254;DHT22;39148;53.332;6.922;2022-08-11T09:58:58;23.60;76.70
53254;DHT22;39148;53.332;6.922;2022-08-11T10:01:28;23.60;77.70
53254;DHT22;39148;53.332;6.922;2022-08-11T10:04:13;23.70;77.90
53254;DHT22;39148;53.332;6.922;2022-08-11T10:06:43;23.80;76.80
53254;DHT22;39148;53.332;6.922;2022-08-11T10:12:07;23.90;77.70
53254;DHT22;39148;53.332;6.922;2022-08-11T10:14:37;23.80;77.50
53254;DHT22;39148;53.332;6.922;2022-08-11T10:17:23;23.90;77.70
53254;DHT22;39148;53.332;6.922;2022-08-11T10:19:49;24.00;77.30
53254;DHT22;39148;53.332;6.922;2022-08-11T10:22:17;24.00;77.20
53254;DHT22;39148;53.332;6.922;2022-08-11T10:25:02;24.00;77.30
53254;DHT22;39148;53.332;6.922;2022-08-11T10:27:48;24.10;77.10
53254;DHT22;39148;53.332;6.922;2022-08-11T10:30:25;24.00;77.20
53254;DHT22;39148;53.332;6.922;2022-08-11T10:33:11;24.20;77.20
53254;DHT22;39148;53.332;6.922;2022-08-11T10:35:59;24.20;77.10
53254;DHT22;39148;53.332;6.922;2022-08-11T10:38:26;24.00;76.80
53254;DHT22;39148;53.332;6.922;2022-08-11T10:40:54;24.30;76.90
53254;DHT22;39148;53.332;6.922;2022-08-11T10:43:38;24.40;76.80
53254;DHT22;39148;53.332;6.922;2022-08-11T10:46:09;24.40;76.80
53254;DHT22;39148;53.332;6.922;2022-08-11T10:48:55;24.40;76.80
53254;DHT22;39148;53.332;6.922;2022-08-11T10:51:24;24.50;76.70
53254;DHT22;39148;53.332;6.922;2022-08-11T10:54:09;24.60;76.70
53254;DHT22;39148;53.332;6.922;2022-08-11T10:56:54;24.50;76.50
53254;DHT22;39148;53.332;6.922;2022-08-11T10:59:39;24.60;75.70
53254;DHT22;39148;53.332;6.922;2022-08-11T11:02:12;25.80;77.10
53254;DHT22;39148;53.332;6.922;2022-08-11T11:07:15;24.80;76.30
53254;DHT22;39148;53.332;6.922;2022-08-11T11:09:50;24.80;76.40
53254;DHT22;39148;53.332;6.922;2022-08-11T11:12:29;24.70;76.20
53254;DHT22;39148;53.332;6.922;2022-08-11T11:15:16;24.90;76.20
53254;DHT22;39148;53.332;6.922;2022-08-11T11:18:28;24.90;76.00
53254;DHT22;39148;53.332;6.922;2022-08-11T11:21:12;25.10;76.50
53254;DHT22;39148;53.332;6.922;2022-08-11T11:23:43;25.00;74.60
53254;DHT22;39148;53.332;6.922;2022-08-11T11:29:19;25.10;74.70
53254;DHT22;39148;53.332;6.922;2022-08-11T11:37:41;25.20;74.40
53254;DHT22;39148;53.332;6.922;2022-08-11T11:40:09;25.30;75.20
53254;DHT22;39148;53.332;6.922;2022-08-11T11:42:40;25.20;75.00
53254;DHT22;39148;53.332;6.922;2022-08-11T11:45:08;25.30;74.90
53254;DHT22;39148;53.332;6.922;2022-08-11T11:47:36;25.40;74.70
53254;DHT22;39148;53.332;6.922;2022-08-11T11:50:04;25.40;75.10
53254;DHT22;39148;53.332;6.922;2022-08-11T11:52:32;25.50;74.80
53254;DHT22;39148;53.332;6.922;2022-08-11T11:54:59;25.60;75.00
53254;DHT22;39148;53.332;6.922;2022-08-11T11:57:25;25.50;74.80
53254;DHT22;39148;53.332;6.922;2022-08-11T12:00:11;25.60;74.70
53254;DHT22;39148;53.332;6.922;2022-08-11T12:02:57;25.70;74.70
53254;DHT22;39148;53.332;6.922;2022-08-11T12:05:24;25.70;75.00
53254;DHT22;39148;53.332;6.922;2022-08-11T12:07:51;25.70;74.80
53254;DHT22;39148;53.332;6.922;2022-08-11T12:10:37;25.80;74.80
53254;DHT22;39148;53.332;6.922;2022-08-11T12:13:04;25.80;74.90
53254;DHT22;39148;53.332;6.922;2022-08-11T12:15:49;25.90;74.80
53254;DHT22;39148;53.332;6.922;2022-08-11T12:18:17;26.00;74.90
53254;DHT22;39148;53.332;6.922;2022-08-11T12:20:43;26.00;75.00
53254;DHT22;39148;53.332;6.922;2022-08-11T12:23:10;26.00;75.00
53254;DHT22;39148;53.332;6.922;2022-08-11T12:26:00;26.10;75.10
53254;DHT22;39148;53.332;6.922;2022-08-11T12:28:44;26.20;74.70
53254;DHT22;39148;53.332;6.922;2022-08-11T12:31:12;26.10;75.40
53254;DHT22;39148;53.332;6.922;2022-08-11T12:33:38;26.10;74.70
53254;DHT22;39148;53.332;6.922;2022-08-11T12:36:09;26.20;74.40
53254;DHT22;39148;53.332;6.922;2022-08-11T12:38:41;26.20;74.90
53254;DHT22;39148;53.332;6.922;2022-08-11T12:41:07;26.30;74.90
53254;DHT22;39148;53.332;6.922;2022-08-11T12:43:51;26.40;74.10
53254;DHT22;39148;53.332;6.922;2022-08-11T12:46:36;26.30;74.60
53254;DHT22;39148;53.332;6.922;2022-08-11T12:49:22;26.40;74.90
53254;DHT22;39148;53.332;6.922;2022-08-11T12:52:10;26.50;75.50
53254;DHT22;39148;53.332;6.922;2022-08-11T12:54:58;26.50;74.90
53254;DHT22;39148;53.332;6.922;2022-08-11T13:00:15;26.60;73.70
53254;DHT22;39148;53.332;6.922;2022-08-11T13:02:59;26.60;74.70
53254;DHT22;39148;53.332;6.922;2022-08-11T13:05:46;26.70;74.80
53254;DHT22;39148;53.332;6.922;2022-08-11T13:08:14;26.70;75.30
53254;DHT22;39148;53.332;6.922;2022-08-11T13:10:41;26.80;74.70
53254;DHT22;39148;53.332;6.922;2022-08-11T13:13:26;26.80;74.60
53254;DHT22;39148;53.332;6.922;2022-08-11T13:15:52;26.80;74.60
53254;DHT22;39148;53.332;6.922;2022-08-11T13:18:20;26.90;74.60
53254;DHT22;39148;53.332;6.922;2022-08-11T13:20:57;26.70;74.70
53254;DHT22;39148;53.332;6.922;2022-08-11T13:23:24;27.10;75.50
53254;DHT22;39148;53.332;6.922;2022-08-11T13:25:53;26.90;74.60
53254;DHT22;39148;53.332;6.922;2022-08-11T13:28:21;27.10;74.90
53254;DHT22;39148;53.332;6.922;2022-08-11T13:30:49;27.10;74.70
53254;DHT22;39148;53.332;6.922;2022-08-11T13:33:37;27.00;74.60
53254;DHT22;39148;53.332;6.922;2022-08-11T13:36:05;27.20;74.70
53254;DHT22;39148;53.332;6.922;2022-08-11T13:38:31;27.20;74.50
53254;DHT22;39148;53.332;6.922;2022-08-11T13:40:58;27.10;74.50
53254;DHT22;39148;53.332;6.922;2022-08-11T13:43:24;27.20;74.40
53254;DHT22;39148;53.332;6.922;2022-08-11T13:45:51;27.30;74.40
53254;DHT22;39148;53.332;6.922;2022-08-11T13:48:38;27.20;74.40
53254;DHT22;39148;53.332;6.922;2022-08-11T13:51:06;27.30;74.40
53254;DHT22;39148;53.332;6.922;2022-08-11T13:53:51;27.30;73.70
53254;DHT22;39148;53.332;6.922;2022-08-11T13:56:17;27.40;74.40
53254;DHT22;39148;53.332;6.922;2022-08-11T13:58:43;27.50;74.40
53254;DHT22;39148;53.332;6.922;2022-08-11T14:01:10;27.40;74.30
53254;DHT22;39148;53.332;6.922;2022-08-11T14:03:39;27.40;74.10
53254;DHT22;39148;53.332;6.922;2022-08-11T14:06:07;27.50;74.30
53254;DHT22;39148;53.332;6.922;2022-08-11T14:08:37;27.50;74.20
53254;DHT22;39148;53.332;6.922;2022-08-11T14:11:06;27.60;74.30
53254;DHT22;39148;53.332;6.922;2022-08-11T14:13:51;27.50;74.20
53254;DHT22;39148;53.332;6.922;2022-08-11T14:16:30;27.60;74.30
53254;DHT22;39148;53.332;6.922;2022-08-11T14:19:01;25.00;71.40
53254;DHT22;39148;53.332;6.922;2022-08-11T14:21:29;27.60;74.20
53254;DHT22;39148;53.332;6.922;2022-08-11T14:24:17;27.60;74.50
53254;DHT22;39148;53.332;6.922;2022-08-11T14:26:43;27.80;74.00
53254;DHT22;39148;53.332;6.922;2022-08-11T14:29:15;27.70;74.40
53254;DHT22;39148;53.332;6.922;2022-08-11T14:31:56;27.80;74.10
53254;DHT22;39148;53.332;6.922;2022-08-11T14:34:27;27.70;74.10
53254;DHT22;39148;53.332;6.922;2022-08-11T14:37:03;27.80;74.00
53254;DHT22;39148;53.332;6.922;2022-08-11T14:39:59;27.80;72.70
53254;DHT22;39148;53.332;6.922;2022-08-11T14:42:26;27.90;74.20
53254;DHT22;39148;53.332;6.922;2022-08-11T14:45:15;27.90;73.40
53254;DHT22;39148;53.332;6.922;2022-08-11T14:48:03;28.10;74.00
53254;DHT22;39148;53.332;6.922;2022-08-11T14:50:31;27.90;73.60
53254;DHT22;39148;53.332;6.922;2022-08-11T14:53:05;28.00;73.90
53254;DHT22;39148;53.332;6.922;2022-08-11T14:55:35;28.00;72.60
53254;DHT22;39148;53.332;6.922;2022-08-11T14:58:23;28.10;73.80
53254;DHT22;39148;53.332;6.922;2022-08-11T15:00:57;28.10;74.10
53254;DHT22;39148;53.332;6.922;2022-08-11T15:03:24;28.10;73.70
53254;DHT22;39148;53.332;6.922;2022-08-11T15:05:55;28.20;73.60
53254;DHT22;39148;53.332;6.922;2022-08-11T15:08:22;28.20;73.60
53254;DHT22;39148;53.332;6.922;2022-08-11T15:11:09;28.20;73.40
53254;DHT22;39148;53.332;6.922;2022-08-11T15:14:01;28.20;73.50
53254;DHT22;39148;53.332;6.922;2022-08-11T15:16:27;28.40;73.50
53254;DHT22;39148;53.332;6.922;2022-08-11T15:19:13;28.30;73.40
53254;DHT22;39148;53.332;6.922;2022-08-11T15:21:40;28.30;73.40
53254;DHT22;39148;53.332;6.922;2022-08-11T15:24:24;28.50;72.70
53254;DHT22;39148;53.332;6.922;2022-08-11T15:26:51;28.50;73.90
53254;DHT22;39148;53.332;6.922;2022-08-11T15:29:38;28.40;73.30
53254;DHT22;39148;53.332;6.922;2022-08-11T15:32:25;28.40;73.30
53254;DHT22;39148;53.332;6.922;2022-08-11T15:35:10;28.40;72.90
53254;DHT22;39148;53.332;6.922;2022-08-11T15:37:59;28.50;73.40
53254;DHT22;39148;53.332;6.922;2022-08-11T15:40:29;28.60;73.40
53254;DHT22;39148;53.332;6.922;2022-08-11T15:43:28;28.70;72.50
53254;DHT22;39148;53.332;6.922;2022-08-11T15:46:19;28.50;73.20
53254;DHT22;39148;53.332;6.922;2022-08-11T15:48:50;28.60;73.30
53254;DHT22;39148;53.332;6.922;2022-08-11T15:51:35;28.70;73.40
53254;DHT22;39148;53.332;6.922;2022-08-11T15:54:07;28.70;72.30
53254;DHT22;39148;53.332;6.922;2022-08-11T15:56:36;28.70;73.40
53254;DHT22;39148;53.332;6.922;2022-08-11T15:59:03;28.70;73.20
53254;DHT22;39148;53.332;6.922;2022-08-11T16:01:50;28.80;73.40
53254;DHT22;39148;53.332;6.922;2022-08-11T16:04:37;28.80;73.40
53254;DHT22;39148;53.332;6.922;2022-08-11T16:07:10;28.80;73.10
53254;DHT22;39148;53.332;6.922;2022-08-11T16:09:59;28.70;73.10
53254;DHT22;39148;53.332;6.922;2022-08-11T16:12:28;28.80;73.50
53254;DHT22;39148;53.332;6.922;2022-08-11T16:15:04;28.80;73.40
53254;DHT22;39148;53.332;6.922;2022-08-11T16:17:54;28.80;73.40
53254;DHT22;39148;53.332;6.922;2022-08-11T16:20:25;28.90;73.30
53254;DHT22;39148;53.332;6.922;2022-08-11T16:22:55;28.90;72.60
53254;DHT22;39148;53.332;6.922;2022-08-11T16:25:23;28.70;72.50
53254;DHT22;39148;53.332;6.922;2022-08-11T16:28:01;28.80;72.30
53254;DHT22;39148;53.332;6.922;2022-08-11T16:30:31;28.80;70.90
53254;DHT22;39148;53.332;6.922;2022-08-11T16:32:59;28.80;71.80
53254;DHT22;39148;53.332;6.922;2022-08-11T16:35:26;28.80;71.60
53254;DHT22;39148;53.332;6.922;2022-08-11T16:38:13;28.80;71.40
53254;DHT22;39148;53.332;6.922;2022-08-11T16:40:59;28.80;71.20
53254;DHT22;39148;53.332;6.922;2022-08-11T16:43:29;28.80;71.00
53254;DHT22;39148;53.332;6.922;2022-08-11T16:46:19;28.70;70.70
53254;DHT22;39148;53.332;6.922;2022-08-11T16:49:15;28.70;69.40
53254;DHT22;39148;53.332;6.922;2022-08-11T16:51:43;28.60;70.40
53254;DHT22;39148;53.332;6.922;2022-08-11T16:54:09;28.70;70.80
53254;DHT22;39148;53.332;6.922;2022-08-11T16:56:42;28.70;70.00
53254;DHT22;39148;53.332;6.922;2022-08-11T16:59:28;28.70;70.10
53254;DHT22;39148;53.332;6.922;2022-08-11T17:02:04;28.60;68.80
53254;DHT22;39148;53.332;6.922;2022-08-11T17:04:46;28.60;69.90
53254;DHT22;39148;53.332;6.922;2022-08-11T17:07:33;28.50;69.90
53254;DHT22;39148;53.332;6.922;2022-08-11T17:10:39;28.60;69.90
53254;DHT22;39148;53.332;6.922;2022-08-11T17:13:41;28.60;70.10
53254;DHT22;39148;53.332;6.922;2022-08-11T17:16:10;28.60;70.00
53254;DHT22;39148;53.332;6.922;2022-08-11T17:23:52;28.50;69.30
53254;DHT22;39148;53.332;6.922;2022-08-11T17:26:26;28.50;70.00
53254;DHT22;39148;53.332;6.922;2022-08-11T17:39:43;28.00;68.60
53254;DHT22;39148;53.332;6.922;2022-08-11T17:42:10;28.30;69.90
53254;DHT22;39148;53.332;6.922;2022-08-11T17:44:56;28.30;69.90
53254;DHT22;39148;53.332;6.922;2022-08-11T17:47:41;28.30;69.90
53254;DHT22;39148;53.332;6.922;2022-08-11T17:50:27;28.40;69.90
53254;DHT22;39148;53.332;6.922;2022-08-11T17:52:53;28.20;69.80
53254;DHT22;39148;53.332;6.922;2022-08-11T17:55:38;28.30;69.80
53254;DHT22;39148;53.332;6.922;2022-08-11T17:58:24;28.20;69.80
53254;DHT22;39148;53.332;6.922;2022-08-11T18:01:09;28.00;69.50
53254;DHT22;39148;53.332;6.922;2022-08-11T18:03:35;28.20;70.10
53254;DHT22;39148;53.332;6.922;2022-08-11T18:06:05;28.10;69.60
53254;DHT22;39148;53.332;6.922;2022-08-11T18:08:32;28.20;69.50
53254;DHT22;39148;53.332;6.922;2022-08-11T18:11:19;28.10;69.60
53254;DHT22;39148;53.332;6.922;2022-08-11T18:14:06;28.10;69.70
53254;DHT22;39148;53.332;6.922;2022-08-11T18:16:51;28.00;70.10
53254;DHT22;39148;53.332;6.922;2022-08-11T18:19:36;28.00;68.60
53254;DHT22;39148;53.332;6.922;2022-08-11T18:22:27;28.00;68.80
53254;DHT22;39148;53.332;6.922;2022-08-11T18:25:15;28.00;69.70
53254;DHT22;39148;53.332;6.922;2022-08-11T18:28:04;27.90;69.60
53254;DHT22;39148;53.332;6.922;2022-08-11T18:30:49;27.90;69.60
53254;DHT22;39148;53.332;6.922;2022-08-11T18:33:40;27.90;69.60
53254;DHT22;39148;53.332;6.922;2022-08-11T18:36:31;27.60;69.50
53254;DHT22;39148;53.332;6.922;2022-08-11T18:39:19;27.80;70.20
53254;DHT22;39148;53.332;6.922;2022-08-11T18:42:13;27.80;69.60
53254;DHT22;39148;53.332;6.922;2022-08-11T18:45:03;27.70;69.80
53254;DHT22;39148;53.332;6.922;2022-08-11T18:47:49;27.70;69.60
53254;DHT22;39148;53.332;6.922;2022-08-11T18:50:36;27.60;69.70
53254;DHT22;39148;53.332;6.922;2022-08-11T18:53:23;27.70;69.80
53254;DHT22;39148;53.332;6.922;2022-08-11T18:56:10;27.70;69.90
53254;DHT22;39148;53.332;6.922;2022-08-11T18:58:55;27.60;69.90
53254;DHT22;39148;53.332;6.922;2022-08-11T19:01:41;27.60;70.50
53254;DHT22;39148;53.332;6.922;2022-08-11T19:13:21;27.50;69.40
53254;DHT22;39148;53.332;6.922;2022-08-11T19:16:03;27.60;69.60
53254;DHT22;39148;53.332;6.922;2022-08-11T19:18:49;27.50;70.40
53254;DHT22;39148;53.332;6.922;2022-08-11T19:21:35;27.50;70.50
53254;DHT22;39148;53.332;6.922;2022-08-11T19:24:21;27.60;70.60
53254;DHT22;39148;53.332;6.922;2022-08-11T19:27:06;27.50;70.60
53254;DHT22;39148;53.332;6.922;2022-08-11T19:29:51;27.40;70.30
53254;DHT22;39148;53.332;6.922;2022-08-11T19:32:37;27.40;70.70
53254;DHT22;39148;53.332;6.922;2022-08-11T19:35:23;27.40;70.70
53254;DHT22;39148;53.332;6.922;2022-08-11T19:38:08;27.40;70.80
53254;DHT22;39148;53.332;6.922;2022-08-11T19:40:53;27.30;70.80
53254;DHT22;39148;53.332;6.922;2022-08-11T19:43:39;27.10;70.70
53254;DHT22;39148;53.332;6.922;2022-08-11T19:46:25;27.30;71.00
53254;DHT22;39148;53.332;6.922;2022-08-11T19:49:10;27.30;71.00
53254;DHT22;39148;53.332;6.922;2022-08-11T19:51:56;27.30;71.10
53254;DHT22;39148;53.332;6.922;2022-08-11T19:54:42;27.20;71.20
53254;DHT22;39148;53.332;6.922;2022-08-11T19:57:28;27.10;71.20
53254;DHT22;39148;53.332;6.922;2022-08-11T20:00:15;27.10;71.20
53254;DHT22;39148;53.332;6.922;2022-08-11T20:03:02;27.20;71.60
53254;DHT22;39148;53.332;6.922;2022-08-11T20:05:48;27.10;71.40
53254;DHT22;39148;53.332;6.922;2022-08-11T20:08:35;27.20;71.40
53254;DHT22;39148;53.332;6.922;2022-08-11T20:11:22;27.10;71.50
53254;DHT22;39148;53.332;6.922;2022-08-11T20:14:07;27.00;70.90
53254;DHT22;39148;53.332;6.922;2022-08-11T20:16:53;27.00;71.50
53254;DHT22;39148;53.332;6.922;2022-08-11T20:19:40;27.00;71.70
53254;DHT22;39148;53.332;6.922;2022-08-11T20:22:27;27.00;71.80
53254;DHT22;39148;53.332;6.922;2022-08-11T20:25:13;27.10;71.90
53254;DHT22;39148;53.332;6.922;2022-08-11T20:27:58;26.90;71.80
53254;DHT22;39148;53.332;6.922;2022-08-11T20:30:44;26.90;71.80
53254;DHT22;39148;53.332;6.922;2022-08-11T20:33:30;26.90;71.80
53254;DHT22;39148;53.332;6.922;2022-08-11T20:36:15;27.00;72.20
53254;DHT22;39148;53.332;6.922;2022-08-11T20:39:01;26.90;72.30
53254;DHT22;39148;53.332;6.922;2022-08-11T20:41:47;26.70;72.30
53254;DHT22;39148;53.332;6.922;2022-08-11T20:44:32;26.80;72.50
53254;DHT22;39148;53.332;6.922;2022-08-11T20:47:18;26.60;72.30
53254;DHT22;39148;53.332;6.922;2022-08-11T20:50:03;26.70;72.50